Time;durP1;ratioP1;P1;durP2;ratioP2;P2;SDS_P1;SDS_P2;PMS_P1;PMS_P2;Temp;Humidity;BMP_temperature;BMP_pressure;BME280_temperature;BME280_humidity;BME280_pressure;Samples;Min_cycle;Max_cycle;Signal;HPM_P1;HPM_P2
2022/05/18 00:00:09;;;;;;;3.03;1.60;;;21.50;62.80;;;;;;4995126;28;20726;-71
2022/05/18 00:02:36;;;;;;;1.80;1.70;;;21.50;62.80;;;;;;5001203;28;20225;-71
2022/05/18 00:05:04;;;;;;;1.98;1.88;;;21.50;62.80;;;;;;4956495;28;20354;-70
2022/05/18 00:07:30;;;;;;;2.65;1.80;;;21.50;62.80;;;;;;4972252;28;20278;-71
2022/05/18 00:09:56;;;;;;;1.95;1.83;;;21.50;62.80;;;;;;4973537;28;20209;-71
2022/05/18 00:12:23;;;;;;;1.90;1.80;;;21.50;62.80;;;;;;4972478;28;20217;-71
2022/05/18 00:14:49;;;;;;;2.10;2.00;;;21.50;62.80;;;;;;4956224;28;20746;-70
2022/05/18 00:17:15;;;;;;;2.20;2.00;;;21.50;62.80;;;;;;4972096;28;20272;-71
2022/05/18 00:19:41;;;;;;;2.28;2.08;;;21.50;62.80;;;;;;4972328;28;20186;-71
2022/05/18 00:22:08;;;;;;;1.75;1.65;;;21.50;62.80;;;;;;4972242;28;20205;-70
2022/05/18 00:24:34;;;;;;;2.38;1.90;;;21.50;62.80;;;;;;4956325;28;20197;-71
2022/05/18 00:27:03;;;;;;;2.13;1.98;;;21.50;62.80;;;;;;4972255;28;20217;-71
2022/05/18 00:29:30;;;;;;;1.92;1.83;;;21.50;62.80;;;;;;4972034;28;20213;-71
2022/05/18 00:31:56;;;;;;;1.73;1.63;;;21.50;62.80;;;;;;4969661;28;20231;-71
2022/05/18 00:34:22;;;;;;;1.90;1.80;;;21.50;62.80;;;;;;4980704;28;20212;-71
2022/05/18 00:36:47;;;;;;;1.80;1.60;;;21.50;62.80;;;;;;5007531;28;20554;-71
2022/05/18 00:39:14;;;;;;;1.60;1.50;;;21.50;62.80;;;;;;4991770;28;20656;-71
2022/05/18 00:41:39;;;;;;;1.88;1.77;;;21.50;62.80;;;;;;4975371;28;20203;-71
2022/05/18 00:44:07;;;;;;;1.90;1.80;;;21.50;62.80;;;;;;4992718;28;20185;-70
2022/05/18 00:46:33;;;;;;;1.80;1.70;;;21.50;62.80;;;;;;4975092;28;20221;-71
2022/05/18 00:49:06;;;;;;;2.00;1.90;;;21.50;62.80;;;;;;4991239;28;20215;-71
2022/05/18 00:51:40;;;;;;;1.88;1.65;;;21.50;62.70;;;;;;4991705;28;20173;-70
2022/05/18 00:54:19;;;;;;;1.80;1.70;;;21.50;62.80;;;;;;4991375;28;20205;-70
2022/05/18 00:57:01;;;;;;;2.40;2.20;;;21.50;62.80;;;;;;4974928;28;20173;-71
2022/05/18 00:59:38;;;;;;;2.38;2.03;;;21.50;62.80;;;;;;4992450;28;20179;-71
2022/05/18 01:02:07;;;;;;;2.40;2.22;;;21.50;62.80;;;;;;4983191;28;20240;-71
2022/05/18 01:04:33;;;;;;;2.50;1.85;;;21.50;62.80;;;;;;5008145;28;20196;-71
2022/05/18 01:07:16;;;;;;;2.10;2.00;;;21.50;62.80;;;;;;4994574;28;20192;-71
2022/05/18 01:09:47;;;;;;;2.20;2.10;;;21.50;62.70;;;;;;5014706;28;20199;-71
2022/05/18 01:12:18;;;;;;;2.47;1.58;;;21.50;62.80;;;;;;5014184;28;20215;-71
2022/05/18 01:14:56;;;;;;;2.20;2.08;;;21.50;62.80;;;;;;5014290;28;20216;-71
2022/05/18 01:17:29;;;;;;;1.98;1.88;;;21.50;62.70;;;;;;5015154;28;20172;-71
2022/05/18 01:20:00;;;;;;;2.25;1.92;;;21.50;62.80;;;;;;5014581;28;20204;-70
2022/05/18 01:22:29;;;;;;;2.25;2.05;;;21.50;62.70;;;;;;5015275;28;20236;-71
2022/05/18 01:25:46;;;;;;;2.33;2.22;;;21.50;62.80;;;;;;4997685;28;20188;-70
2022/05/18 01:28:13;;;;;;;1.92;1.73;;;21.50;62.80;;;;;;4997465;28;20240;-71
2022/05/18 01:30:46;;;;;;;1.90;1.80;;;21.50;62.70;;;;;;5014034;28;20180;-71
2022/05/18 01:33:14;;;;;;;2.03;1.92;;;21.50;62.80;;;;;;5006768;28;20286;-71
2022/05/18 01:35:44;;;;;;;2.00;1.90;;;21.50;62.70;;;;;;5015167;28;20198;-71
2022/05/18 01:38:14;;;;;;;1.80;1.70;;;21.50;62.70;;;;;;5030240;28;20238;-71
2022/05/18 01:40:55;;;;;;;2.55;2.10;;;21.50;62.70;;;;;;4997688;28;20631;-71
2022/05/18 01:43:46;;;;;;;2.20;1.92;;;21.50;62.70;;;;;;5013795;28;20208;-71
2022/05/18 01:46:15;;;;;;;2.20;2.00;;;21.50;62.70;;;;;;4997490;28;20195;-70
2022/05/18 01:48:50;;;;;;;2.30;2.10;;;21.50;62.60;;;;;;4997055;28;20242;-71
2022/05/18 01:51:34;;;;;;;1.67;1.58;;;21.50;62.70;;;;;;4997637;28;20267;-71
2022/05/18 01:54:00;;;;;;;2.10;1.75;;;21.50;62.60;;;;;;5008760;28;20239;-71
2022/05/18 01:56:26;;;;;;;1.95;1.85;;;21.50;62.70;;;;;;4977774;28;20213;-71
2022/05/18 01:58:52;;;;;;;1.85;1.75;;;21.40;62.50;;;;;;4985607;28;20184;-71
2022/05/18 02:01:20;;;;;;;2.15;2.00;;;21.50;62.60;;;;;;4999473;28;20188;-70
2022/05/18 02:03:47;;;;;;;1.90;1.80;;;21.50;62.60;;;;;;4968511;28;20240;-71
2022/05/18 02:06:14;;;;;;;2.80;2.30;;;21.50;62.60;;;;;;4992592;28;20192;-71
2022/05/18 02:08:42;;;;;;;1.70;1.60;;;21.50;62.60;;;;;;4976156;28;20205;-71
2022/05/18 02:11:14;;;;;;;2.25;2.05;;;21.50;62.60;;;;;;4993736;28;20192;-71
2022/05/18 02:13:41;;;;;;;1.95;1.80;;;21.50;62.60;;;;;;4993531;28;20209;-71
2022/05/18 02:16:07;;;;;;;2.17;2.08;;;21.40;62.50;;;;;;4993886;28;20177;-71
2022/05/18 02:18:33;;;;;;;2.35;2.08;;;21.40;62.50;;;;;;4993143;28;20211;-71
2022/05/18 02:21:03;;;;;;;2.22;2.00;;;21.50;62.70;;;;;;4994728;28;20185;-71
2022/05/18 02:23:29;;;;;;;3.45;2.03;;;21.50;62.60;;;;;;5009669;28;20592;-70
2022/05/18 02:25:55;;;;;;;2.95;2.63;;;21.40;62.50;;;;;;5009700;28;20193;-70
2022/05/18 02:28:20;;;;;;;2.72;2.53;;;21.50;62.60;;;;;;4993403;28;20213;-71
2022/05/18 02:30:46;;;;;;;2.67;2.22;;;21.50;62.60;;;;;;4994765;28;20177;-71
2022/05/18 02:33:12;;;;;;;2.17;2.08;;;21.40;62.50;;;;;;5004811;28;20201;-71
2022/05/18 02:35:40;;;;;;;1.67;1.58;;;21.40;62.50;;;;;;4996487;28;20192;-70
2022/05/18 02:38:07;;;;;;;2.15;1.90;;;21.40;62.50;;;;;;5012590;28;20193;-71
2022/05/18 02:40:33;;;;;;;1.90;1.70;;;21.40;62.50;;;;;;5013946;28;20187;-70
2022/05/18 02:42:59;;;;;;;2.20;1.73;;;21.50;62.60;;;;;;5012461;28;20676;-71
2022/05/18 02:45:25;;;;;;;2.13;1.92;;;21.40;62.50;;;;;;5012739;28;20184;-71
2022/05/18 02:47:51;;;;;;;2.20;2.10;;;21.40;62.50;;;;;;5012314;28;20184;-71
2022/05/18 02:50:17;;;;;;;2.05;1.88;;;21.40;62.60;;;;;;5012362;28;20231;-71
2022/05/18 02:52:43;;;;;;;1.90;1.80;;;21.40;62.50;;;;;;4996074;28;20218;-71
2022/05/18 02:57:55;;;;;;;2.28;2.08;;;21.50;62.60;;;;;;5012161;28;20553;-71
2022/05/18 03:00:22;;;;;;;2.25;2.08;;;21.40;62.50;;;;;;5013840;28;20172;-71
2022/05/18 03:02:48;;;;;;;3.13;2.22;;;21.40;62.50;;;;;;4986003;28;20223;-71
2022/05/18 03:05:14;;;;;;;2.10;1.90;;;21.40;62.50;;;;;;4976727;28;20319;-71
2022/05/18 03:07:40;;;;;;;2.20;2.00;;;21.40;62.50;;;;;;4992384;28;20188;-70
2022/05/18 03:10:06;;;;;;;2.40;2.20;;;21.40;62.50;;;;;;4992531;28;20232;-71
2022/05/18 03:12:32;;;;;;;2.42;2.22;;;21.40;62.50;;;;;;4992556;28;20220;-71
2022/05/18 03:14:58;;;;;;;2.50;2.30;;;21.40;62.50;;;;;;4993640;28;20173;-71
2022/05/18 03:17:23;;;;;;;2.33;2.20;;;21.40;62.50;;;;;;4992190;28;20185;-70
2022/05/18 03:19:49;;;;;;;2.53;2.33;;;21.40;62.50;;;;;;4992521;28;20177;-70
2022/05/18 03:24:59;;;;;;;2.20;2.03;;;21.40;62.60;;;;;;4993598;28;20267;-70
2022/05/18 03:27:25;;;;;;;1.90;1.80;;;21.40;62.50;;;;;;4993292;28;20272;-71
2022/05/18 03:29:51;;;;;;;2.40;2.20;;;21.40;62.50;;;;;;4991633;28;20220;-71
2022/05/18 03:32:17;;;;;;;2.08;1.98;;;21.40;62.50;;;;;;4983707;28;20205;-71
2022/05/18 03:34:43;;;;;;;1.92;1.83;;;21.40;62.60;;;;;;5011858;28;20184;-71
2022/05/18 03:37:08;;;;;;;1.80;1.70;;;21.40;62.50;;;;;;4995182;28;20184;-71
2022/05/18 03:39:34;;;;;;;1.80;1.70;;;21.40;62.50;;;;;;5011898;28;20192;-71
2022/05/18 03:42:00;;;;;;;2.22;1.80;;;21.40;62.50;;;;;;4995331;28;20207;-71
2022/05/18 03:44:26;;;;;;;1.90;1.80;;;21.40;62.50;;;;;;5012958;28;20267;-71
2022/05/18 03:46:51;;;;;;;2.10;2.00;;;21.40;62.60;;;;;;4995362;28;20192;-68
2022/05/18 03:49:18;;;;;;;2.63;2.35;;;21.40;62.50;;;;;;5011907;28;20223;-71
2022/05/18 03:51:45;;;;;;;2.30;2.10;;;21.40;62.50;;;;;;5011815;28;20208;-71
2022/05/18 03:54:11;;;;;;;2.15;2.05;;;21.40;62.50;;;;;;5011733;28;20176;-71
2022/05/18 03:56:37;;;;;;;2.33;2.20;;;21.40;62.50;;;;;;5011460;28;20184;-71
2022/05/18 03:59:02;;;;;;;2.67;2.47;;;21.40;62.60;;;;;;5011284;28;20188;-71
2022/05/18 04:01:28;;;;;;;2.22;2.13;;;21.40;62.60;;;;;;5004323;28;20196;-71
2022/05/18 04:03:54;;;;;;;2.60;2.40;;;21.40;62.60;;;;;;4978777;28;20181;-71
2022/05/18 04:06:20;;;;;;;2.50;2.30;;;21.40;62.60;;;;;;4992095;28;20189;-71
2022/05/18 04:08:46;;;;;;;2.75;2.55;;;21.40;62.50;;;;;;4991870;28;20213;-71
2022/05/18 04:11:13;;;;;;;2.60;2.40;;;21.40;62.60;;;;;;4992722;28;20188;-71
2022/05/18 04:13:39;;;;;;;2.22;2.10;;;21.40;62.50;;;;;;5045087;23;20281;-70
2022/05/18 04:16:05;;;;;;;2.20;2.00;;;21.40;62.60;;;;;;5014111;28;20179;-70
2022/05/18 04:18:32;;;;;;;2.22;2.03;;;21.40;62.60;;;;;;5031236;28;20270;-71
2022/05/18 04:21:00;;;;;;;1.95;1.85;;;21.40;62.50;;;;;;5014239;28;20555;-70
2022/05/18 04:23:26;;;;;;;2.22;2.00;;;21.40;62.50;;;;;;5030523;28;20207;-70
2022/05/18 04:25:53;;;;;;;1.98;1.88;;;21.40;62.60;;;;;;5030059;28;20267;-70
2022/05/18 04:28:19;;;;;;;2.17;2.03;;;21.40;62.60;;;;;;5030084;28;20670;-70
2022/05/18 04:30:47;;;;;;;2.00;1.85;;;21.40;62.60;;;;;;5031399;28;20226;-70
2022/05/18 04:33:20;;;;;;;2.45;2.25;;;21.40;62.50;;;;;;5047159;28;20219;-70
2022/05/18 04:35:50;;;;;;;1.80;1.70;;;21.40;62.50;;;;;;5047443;28;20183;-69
2022/05/18 04:38:19;;;;;;;2.88;2.15;;;21.40;62.50;;;;;;5030876;28;20195;-70
2022/05/18 04:40:45;;;;;;;2.30;2.08;;;21.40;62.60;;;;;;5030983;28;20226;-70
2022/05/18 04:43:11;;;;;;;2.25;2.10;;;21.40;62.60;;;;;;5034250;28;20700;-70
2022/05/18 04:45:44;;;;;;;2.30;2.10;;;21.40;62.50;;;;;;5034588;28;20278;-70
2022/05/18 04:48:17;;;;;;;2.55;2.35;;;21.40;62.60;;;;;;5034432;28;20163;-70
2022/05/18 04:50:49;;;;;;;2.92;2.63;;;21.40;62.50;;;;;;5034536;28;20187;-70
2022/05/18 04:53:17;;;;;;;2.50;2.30;;;21.40;62.50;;;;;;5034493;28;20242;-70
2022/05/18 04:55:44;;;;;;;2.50;2.30;;;21.40;62.50;;;;;;5051318;28;20179;-70
2022/05/18 04:58:10;;;;;;;2.42;2.22;;;21.40;62.50;;;;;;5050843;28;20194;-71
2022/05/18 05:00:37;;;;;;;2.03;1.83;;;21.40;62.50;;;;;;5046651;28;20179;-69
2022/05/18 05:03:03;;;;;;;2.20;2.10;;;21.40;62.50;;;;;;5034066;28;20207;-70
2022/05/18 05:05:29;;;;;;;2.20;2.10;;;21.40;62.50;;;;;;5035620;28;20183;-70
2022/05/18 05:07:56;;;;;;;2.38;2.17;;;21.40;62.50;;;;;;5050580;28;20269;-71
2022/05/18 05:10:23;;;;;;;1.95;1.83;;;21.40;62.60;;;;;;5017506;28;20226;-71
2022/05/18 05:12:49;;;;;;;2.08;1.98;;;21.40;62.50;;;;;;5050616;28;20215;-71
2022/05/18 05:15:15;;;;;;;1.92;1.83;;;21.40;62.40;;;;;;5035243;28;20199;-71
2022/05/18 05:17:42;;;;;;;2.25;2.15;;;21.40;62.40;;;;;;5033563;28;20253;-71
2022/05/18 05:20:09;;;;;;;1.90;1.80;;;21.40;62.40;;;;;;5034687;28;20673;-71
2022/05/18 05:22:34;;;;;;;2.13;1.95;;;21.40;62.40;;;;;;5050362;28;20357;-71
2022/05/18 05:25:00;;;;;;;3.22;2.17;;;21.40;62.50;;;;;;5033314;28;20179;-71
2022/05/18 05:27:26;;;;;;;2.50;2.30;;;21.40;62.50;;;;;;5049724;28;20605;-71
2022/05/18 05:29:52;;;;;;;2.67;2.40;;;21.40;62.50;;;;;;5033384;28;20637;-71
2022/05/18 05:32:18;;;;;;;3.88;2.28;;;21.40;62.50;;;;;;5032311;28;20207;-71
2022/05/18 05:34:44;;;;;;;2.60;2.40;;;21.50;62.60;;;;;;5033067;28;20183;-71
2022/05/18 05:37:10;;;;;;;2.65;2.45;;;21.40;62.40;;;;;;5032941;28;20215;-71
2022/05/18 05:39:36;;;;;;;3.28;2.40;;;21.50;62.60;;;;;;5033194;28;20229;-71
2022/05/18 05:42:03;;;;;;;2.53;2.33;;;21.40;62.50;;;;;;5034303;28;20190;-71
2022/05/18 05:44:29;;;;;;;3.78;2.70;;;21.40;62.50;;;;;;5033138;28;20203;-72
2022/05/18 05:46:55;;;;;;;2.83;2.53;;;21.40;62.50;;;;;;5033165;28;20226;-71
2022/05/18 05:49:22;;;;;;;2.88;2.58;;;21.50;62.70;;;;;;5049418;28;20214;-72
2022/05/18 05:51:48;;;;;;;2.50;2.30;;;21.40;62.50;;;;;;5032963;28;20191;-71
2022/05/18 05:54:14;;;;;;;2.85;2.35;;;21.40;62.50;;;;;;5020924;28;20207;-72
2022/05/18 05:56:40;;;;;;;2.47;2.03;;;21.50;62.50;;;;;;5014466;28;20262;-71
2022/05/18 05:59:05;;;;;;;2.30;2.10;;;21.50;62.60;;;;;;5029354;28;20192;-71
2022/05/18 06:01:31;;;;;;;2.25;1.92;;;21.50;62.50;;;;;;5015491;28;20196;-71
2022/05/18 06:03:57;;;;;;;2.40;2.20;;;21.50;62.50;;;;;;5032412;28;20203;-71
2022/05/18 06:06:22;;;;;;;1.88;1.70;;;21.50;62.50;;;;;;5049156;28;20192;-71
2022/05/18 06:08:50;;;;;;;2.17;1.55;;;21.50;62.50;;;;;;5032292;28;20237;-71
2022/05/18 06:11:16;;;;;;;2.33;2.20;;;21.50;62.50;;;;;;5032797;28;20168;-71
2022/05/18 06:13:42;;;;;;;2.75;2.00;;;21.50;62.60;;;;;;5030932;28;20215;-71
2022/05/18 06:16:09;;;;;;;2.60;2.00;;;21.50;62.60;;;;;;5031435;28;20282;-71
2022/05/18 06:18:36;;;;;;;2.30;2.05;;;21.50;62.60;;;;;;5032142;28;20184;-71
2022/05/18 06:21:03;;;;;;;2.05;1.95;;;21.50;62.50;;;;;;5048999;28;20654;-71
2022/05/18 06:23:28;;;;;;;2.95;2.20;;;21.50;62.50;;;;;;5032257;28;20207;-71
2022/05/18 06:26:03;;;;;;;2.90;2.13;;;21.50;62.70;;;;;;5033484;28;20202;-71
2022/05/18 06:28:29;;;;;;;2.80;2.30;;;21.50;62.70;;;;;;5032306;28;20217;-71
2022/05/18 06:30:54;;;;;;;3.08;2.30;;;21.50;62.50;;;;;;5033571;28;20175;-71
2022/05/18 06:33:21;;;;;;;3.28;2.35;;;21.50;62.50;;;;;;5012110;28;20227;-71
2022/05/18 06:35:50;;;;;;;3.13;2.30;;;21.50;62.50;;;;;;5031632;28;20191;-71
2022/05/18 06:38:17;;;;;;;2.35;2.17;;;21.50;62.60;;;;;;5032092;28;20191;-71
2022/05/18 06:43:40;;;;;;;2.22;2.10;;;21.50;62.60;;;;;;5009705;28;20222;-71
2022/05/18 06:46:06;;;;;;;2.15;2.00;;;21.50;62.60;;;;;;5031829;28;20191;-71
2022/05/18 06:48:32;;;;;;;2.83;2.20;;;21.50;62.60;;;;;;5048443;28;20211;-71
2022/05/18 06:50:57;;;;;;;2.13;2.00;;;21.60;62.70;;;;;;5031815;28;20569;-69
2022/05/18 06:53:23;;;;;;;2.80;2.28;;;21.50;62.60;;;;;;5031728;28;20203;-71
2022/05/18 06:55:49;;;;;;;2.50;2.30;;;21.60;62.70;;;;;;5031754;28;20278;-71
2022/05/18 06:58:17;;;;;;;3.42;2.05;;;21.50;62.50;;;;;;5048133;28;20206;-71
2022/05/18 07:00:44;;;;;;;2.30;2.10;;;21.60;62.70;;;;;;5048532;28;20183;-71
2022/05/18 07:03:11;;;;;;;2.58;2.38;;;21.60;62.80;;;;;;5048094;28;20257;-71
2022/05/18 07:05:37;;;;;;;2.38;2.17;;;21.60;63.50;;;;;;5030454;28;20187;-71
2022/05/18 07:08:03;;;;;;;2.40;2.20;;;21.60;62.80;;;;;;5031424;28;20182;-71
2022/05/18 07:10:29;;;;;;;2.33;2.13;;;21.60;63.00;;;;;;5047985;28;20650;-71
2022/05/18 07:12:55;;;;;;;2.78;2.17;;;21.60;63.00;;;;;;5047957;28;20223;-71
2022/05/18 07:15:21;;;;;;;2.72;2.28;;;21.60;63.00;;;;;;5048317;28;20199;-71
2022/05/18 07:17:47;;;;;;;2.70;2.45;;;21.60;63.00;;;;;;5048089;28;20187;-70
2022/05/18 07:20:13;;;;;;;2.30;2.10;;;21.60;63.00;;;;;;5031506;28;20215;-71
2022/05/18 07:22:39;;;;;;;2.38;2.17;;;21.60;62.90;;;;;;5032902;28;20202;-71
2022/05/18 07:25:05;;;;;;;2.13;2.03;;;21.60;62.90;;;;;;5031192;28;20191;-71
2022/05/18 07:27:31;;;;;;;2.65;2.00;;;21.60;62.90;;;;;;5047911;28;20213;-71
2022/05/18 07:29:56;;;;;;;2.60;2.15;;;21.70;62.80;;;;;;5032480;28;20206;-71
2022/05/18 07:32:22;;;;;;;2.30;2.10;;;21.60;62.70;;;;;;5047533;28;20214;-71
2022/05/18 07:34:48;;;;;;;2.45;2.25;;;21.70;62.80;;;;;;5031193;28;20573;-71
2022/05/18 07:37:19;;;;;;;2.70;2.50;;;21.70;62.70;;;;;;5047600;28;20184;-70
2022/05/18 07:39:45;;;;;;;2.90;2.30;;;21.60;62.60;;;;;;5032274;28;20247;-73
2022/05/18 07:42:12;;;;;;;2.45;2.25;;;21.70;62.70;;;;;;5030806;28;20187;-71
2022/05/18 07:44:39;;;;;;;2.30;2.10;;;21.70;62.70;;;;;;5032149;28;20238;-71
2022/05/18 07:47:06;;;;;;;2.42;2.17;;;21.70;62.70;;;;;;5030979;28;20191;-70
2022/05/18 07:49:40;;;;;;;2.42;2.22;;;21.80;62.80;;;;;;5030722;28;20222;-71
2022/05/18 07:52:08;;;;;;;1.92;1.83;;;21.80;62.80;;;;;;5047509;28;20206;-71
2022/05/18 07:54:35;;;;;;;2.65;2.45;;;21.80;62.80;;;;;;5047354;28;20191;-70
2022/05/18 07:57:07;;;;;;;2.40;2.22;;;21.80;62.80;;;;;;5014320;28;20195;-71
2022/05/18 07:59:33;;;;;;;3.22;2.30;;;21.80;62.80;;;;;;5014526;28;20197;-71
2022/05/18 08:02:00;;;;;;;2.67;2.10;;;21.80;62.80;;;;;;5043954;28;20281;-70
2022/05/18 08:04:26;;;;;;;2.42;1.92;;;21.80;62.80;;;;;;5047594;28;20209;-71
2022/05/18 08:06:53;;;;;;;2.38;2.20;;;21.80;62.80;;;;;;5047381;28;20180;-71
2022/05/18 08:09:22;;;;;;;2.45;2.25;;;21.80;62.80;;;;;;5046914;28;20221;-71
2022/05/18 08:17:26;;;;;;;2.22;2.13;;;21.90;63.00;;;;;;5013132;28;20572;-71
2022/05/18 08:19:52;;;;;;;2.80;2.38;;;21.80;62.80;;;;;;5015134;28;20187;-71
2022/05/18 08:22:19;;;;;;;2.53;2.38;;;21.80;62.80;;;;;;5015010;28;20295;-71
2022/05/18 08:24:46;;;;;;;2.42;2.22;;;21.90;62.90;;;;;;5031498;28;20179;-71
2022/05/18 08:27:16;;;;;;;2.33;2.13;;;21.80;62.80;;;;;;5014712;28;20196;-71
2022/05/18 08:29:43;;;;;;;2.28;2.10;;;21.80;62.80;;;;;;5014526;28;20208;-71
2022/05/18 08:32:10;;;;;;;2.38;2.22;;;21.90;62.90;;;;;;5025524;28;20680;-71
2022/05/18 08:34:37;;;;;;;2.00;1.80;;;21.90;62.90;;;;;;5051081;28;20191;-71
2022/05/18 08:37:04;;;;;;;3.33;2.60;;;21.90;62.90;;;;;;5034689;28;20187;-71
2022/05/18 08:39:31;;;;;;;2.40;2.20;;;21.90;62.90;;;;;;5050900;28;20237;-71
2022/05/18 08:42:01;;;;;;;2.53;2.25;;;21.90;62.80;;;;;;5035750;28;20266;-70
2022/05/18 08:44:32;;;;;;;2.20;1.90;;;21.90;62.90;;;;;;5034317;28;20241;-71
2022/05/18 08:47:20;;;;;;;3.83;2.05;;;21.90;62.80;;;;;;5034327;28;20184;-71
2022/05/18 08:50:12;;;;;;;2.25;1.90;;;22.00;63.00;;;;;;5034198;28;20203;-70
2022/05/18 08:53:00;;;;;;;2.10;1.90;;;21.90;62.90;;;;;;5035405;28;20206;-71
2022/05/18 08:55:51;;;;;;;2.03;1.92;;;21.90;62.90;;;;;;5035538;28;20211;-70
2022/05/18 08:58:29;;;;;;;1.88;1.77;;;21.90;63.00;;;;;;5050739;28;20246;-70
2022/05/18 09:01:21;;;;;;;2.05;1.83;;;21.90;62.90;;;;;;5033243;28;20655;-71
2022/05/18 09:04:00;;;;;;;2.33;2.05;;;22.00;63.00;;;;;;5048666;28;20242;-71
2022/05/18 09:07:01;;;;;;;2.25;2.08;;;21.90;62.90;;;;;;5050784;28;20240;-71
2022/05/18 09:10:12;;;;;;;2.17;2.08;;;21.90;62.90;;;;;;5033641;28;20226;-71
2022/05/18 09:12:44;;;;;;;2.30;1.92;;;22.00;63.00;;;;;;5050296;28;20258;-72
2022/05/18 09:15:16;;;;;;;2.10;1.88;;;22.00;63.00;;;;;;5033683;28;20211;-71
2022/05/18 09:18:40;;;;;;;2.15;1.92;;;22.00;63.00;;;;;;5033431;28;20233;-70
2022/05/18 09:21:20;;;;;;;2.20;2.10;;;22.00;63.00;;;;;;5003664;28;20202;-70
2022/05/18 09:24:16;;;;;;;2.60;2.40;;;22.00;63.00;;;;;;5033588;28;20203;-71
2022/05/18 09:27:01;;;;;;;2.45;2.25;;;22.00;63.00;;;;;;5033519;28;20257;-71
2022/05/18 09:30:00;;;;;;;2.33;2.13;;;22.00;63.00;;;;;;5033379;28;20207;-71
2022/05/18 09:32:32;;;;;;;2.00;1.90;;;22.00;63.00;;;;;;5015418;28;20667;-71
2022/05/18 09:35:12;;;;;;;2.03;1.92;;;22.00;63.00;;;;;;5033301;28;20246;-71
2022/05/18 09:37:48;;;;;;;2.35;2.15;;;22.00;63.00;;;;;;5033163;28;20190;-71
2022/05/18 09:40:36;;;;;;;2.00;1.90;;;22.00;63.00;;;;;;5033197;28;20191;-72
2022/05/18 09:43:15;;;;;;;2.17;2.08;;;22.00;63.00;;;;;;5016695;28;20214;-71
2022/05/18 09:45:46;;;;;;;2.10;2.00;;;22.00;63.00;;;;;;5033149;28;20183;-72
2022/05/18 09:48:42;;;;;;;2.15;2.00;;;22.00;63.00;;;;;;5049560;28;20334;-71
2022/05/18 09:51:10;;;;;;;2.13;1.90;;;22.00;63.00;;;;;;5041389;28;20250;-71
2022/05/18 09:53:40;;;;;;;2.08;1.98;;;22.00;63.00;;;;;;5030923;28;20703;-70
2022/05/18 09:56:24;;;;;;;2.28;2.03;;;22.00;63.00;;;;;;5029769;28;20184;-71
2022/05/18 09:58:53;;;;;;;2.08;1.83;;;22.00;63.00;;;;;;5013091;28;20184;-71
2022/05/18 10:09:51;;;;;;;2.00;1.90;;;22.00;63.00;;;;;;5021689;28;20208;-71
2022/05/18 10:12:31;;;;;;;2.17;1.98;;;22.00;63.00;;;;;;5012668;28;20206;-71
2022/05/18 10:15:19;;;;;;;3.55;2.13;;;22.00;63.00;;;;;;5035738;23;20730;-73
2022/05/18 10:17:55;;;;;;;2.20;2.10;;;22.00;63.00;;;;;;5011973;28;20667;-73
2022/05/18 10:20:35;;;;;;;2.40;2.20;;;22.00;63.00;;;;;;4996631;28;20670;-73
2022/05/18 10:23:04;;;;;;;2.33;2.13;;;22.00;63.00;;;;;;4996212;28;20286;-72
2022/05/18 10:25:41;;;;;;;2.33;2.22;;;22.00;63.00;;;;;;4996186;28;20188;-72
2022/05/18 10:28:43;;;;;;;2.10;2.00;;;22.00;63.00;;;;;;5012323;28;20199;-72
2022/05/18 10:31:31;;;;;;;2.50;1.90;;;22.00;63.00;;;;;;5003955;28;20211;-72
2022/05/18 10:34:16;;;;;;;2.40;2.10;;;22.00;63.00;;;;;;5006838;28;20214;-73
2022/05/18 10:37:00;;;;;;;2.92;2.40;;;22.00;63.00;;;;;;5032295;28;20194;-72
2022/05/18 10:39:41;;;;;;;2.63;1.65;;;22.00;63.00;;;;;;5032936;28;20249;-72
2022/05/18 10:42:52;;;;;;;2.30;2.10;;;22.00;63.00;;;;;;5015529;28;20187;-72
2022/05/18 10:45:32;;;;;;;1.90;1.80;;;22.00;63.00;;;;;;5014715;28;20666;-73
2022/05/18 10:48:18;;;;;;;1.80;1.70;;;22.00;63.00;;;;;;5011821;28;20195;-73
2022/05/18 10:50:45;;;;;;;2.08;1.98;;;22.00;63.00;;;;;;5012018;28;20686;-73
2022/05/18 10:53:14;;;;;;;2.08;1.85;;;22.10;63.10;;;;;;5011870;28;20666;-72
2022/05/18 10:55:57;;;;;;;2.10;1.95;;;22.00;62.90;;;;;;5013220;28;20237;-72
2022/05/18 10:59:05;;;;;;;2.00;1.70;;;22.10;63.10;;;;;;5028225;28;20545;-72
2022/05/18 11:01:44;;;;;;;2.15;2.00;;;22.10;63.10;;;;;;5011866;28;20188;-72
2022/05/18 11:04:26;;;;;;;2.47;1.88;;;22.10;63.20;;;;;;4996603;28;20208;-72
2022/05/18 11:06:53;;;;;;;2.00;1.90;;;22.10;63.10;;;;;;4995371;28;20241;-72
2022/05/18 11:09:40;;;;;;;1.70;1.60;;;22.10;63.10;;;;;;5012532;28;20222;-72
2022/05/18 11:12:34;;;;;;;1.90;1.80;;;22.10;63.10;;;;;;4995319;28;20188;-72
2022/05/18 11:15:41;;;;;;;2.25;1.80;;;22.00;63.00;;;;;;4995026;28;20653;-72
2022/05/18 11:18:14;;;;;;;1.98;1.80;;;22.00;63.00;;;;;;5010085;28;20283;-72
2022/05/18 11:21:40;;;;;;;1.80;1.70;;;22.00;63.00;;;;;;4995909;28;20172;-71
2022/05/18 11:24:37;;;;;;;1.75;1.65;;;22.10;63.10;;;;;;4995633;28;20655;-72
2022/05/18 11:27:32;;;;;;;1.77;1.67;;;22.10;63.10;;;;;;4995676;28;20267;-72
2022/05/18 11:30:09;;;;;;;2.03;1.83;;;22.10;63.10;;;;;;5011747;28;20204;-72
2022/05/18 11:32:44;;;;;;;1.80;1.70;;;22.10;63.10;;;;;;5003594;28;20193;-72
2022/05/18 11:35:32;;;;;;;1.88;1.77;;;22.10;63.10;;;;;;5024987;28;20401;-72
2022/05/18 11:38:25;;;;;;;1.95;1.77;;;22.10;63.10;;;;;;5015325;28;20263;-72
2022/05/18 11:41:49;;;;;;;1.67;1.58;;;22.10;63.10;;;;;;5015138;28;20194;-72
2022/05/18 11:44:45;;;;;;;2.35;2.13;;;22.10;63.10;;;;;;5031328;28;20246;-72
2022/05/18 11:47:45;;;;;;;2.28;1.75;;;22.10;63.10;;;;;;5014910;28;20272;-72
2022/05/18 11:50:31;;;;;;;1.90;1.80;;;22.10;62.80;;;;;;5014717;28;20269;-70
2022/05/18 11:53:21;;;;;;;2.40;2.20;;;22.10;63.00;;;;;;5032209;28;20514;-70
2022/05/18 11:56:45;;;;;;;2.20;2.00;;;22.10;62.80;;;;;;5013921;28;20176;-72
2022/05/18 11:59:57;;;;;;;2.30;2.10;;;22.10;62.80;;;;;;4980943;28;20197;-73
2022/05/18 12:03:04;;;;;;;2.05;1.80;;;22.10;63.10;;;;;;5010454;28;20197;-73
2022/05/18 12:06:04;;;;;;;1.90;1.80;;;22.10;62.70;;;;;;5014205;28;20194;-73
2022/05/18 12:08:52;;;;;;;2.15;1.95;;;22.10;62.70;;;;;;4994432;28;20200;-74
2022/05/18 12:11:51;;;;;;;2.08;1.98;;;22.10;62.70;;;;;;4994595;28;20199;-73
2022/05/18 12:14:40;;;;;;;1.77;1.67;;;22.10;63.00;;;;;;4994421;28;20219;-73
2022/05/18 12:17:20;;;;;;;2.28;2.05;;;22.10;62.70;;;;;;5010859;28;20690;-73
2022/05/18 12:20:16;;;;;;;2.58;1.95;;;22.10;63.10;;;;;;4994289;28;20180;-73
2022/05/18 12:22:52;;;;;;;2.08;1.98;;;22.10;63.10;;;;;;5010906;28;20219;-73
2022/05/18 12:25:23;;;;;;;1.95;1.83;;;22.10;63.10;;;;;;4994800;28;20192;-72
2022/05/18 12:27:54;;;;;;;2.30;2.10;;;22.10;63.10;;;;;;4994222;28;20183;-73
2022/05/18 12:30:24;;;;;;;2.05;1.85;;;22.10;63.10;;;;;;5010911;28;20224;-72
2022/05/18 12:32:53;;;;;;;1.90;1.80;;;22.10;62.80;;;;;;5002463;28;20230;-73
2022/05/18 12:35:46;;;;;;;2.00;1.90;;;22.10;62.90;;;;;;5008209;28;20191;-73
2022/05/18 12:38:27;;;;;;;1.90;1.80;;;22.10;62.60;;;;;;5030289;28;20217;-73
2022/05/18 12:41:09;;;;;;;1.92;1.70;;;22.10;63.00;;;;;;5030270;28;20218;-70
2022/05/18 12:43:44;;;;;;;2.10;2.00;;;22.10;62.70;;;;;;5014994;28;20216;-73
2022/05/18 12:46:16;;;;;;;2.50;1.98;;;22.10;63.00;;;;;;5010566;28;20683;-73
2022/05/18 12:48:54;;;;;;;2.40;2.20;;;22.10;63.20;;;;;;5010362;28;20216;-73
2022/05/18 12:51:30;;;;;;;2.63;2.35;;;22.10;63.10;;;;;;4994298;28;20192;-72
2022/05/18 12:54:12;;;;;;;2.40;1.88;;;22.10;63.10;;;;;;5010733;28;20290;-72
2022/05/18 12:56:38;;;;;;;1.98;1.85;;;22.10;63.10;;;;;;5010499;28;20180;-72
2022/05/18 12:59:15;;;;;;;2.30;2.20;;;22.10;63.10;;;;;;5010277;28;20215;-72
2022/05/18 13:01:45;;;;;;;2.13;1.92;;;22.10;63.00;;;;;;5011594;28;20195;-72
2022/05/18 13:04:14;;;;;;;2.25;2.05;;;22.10;63.10;;;;;;5022794;28;20211;-73
2022/05/18 13:06:48;;;;;;;3.20;2.17;;;22.10;63.20;;;;;;5014065;28;20192;-73
2022/05/18 13:09:36;;;;;;;1.98;1.80;;;22.10;63.10;;;;;;4997524;28;20310;-73
2022/05/18 13:12:17;;;;;;;2.33;2.10;;;22.10;63.30;;;;;;4997863;28;20274;-73
2022/05/18 13:15:26;;;;;;;2.00;1.80;;;22.20;63.20;;;;;;4997423;28;20215;-73
2022/05/18 13:18:00;;;;;;;3.13;2.15;;;22.20;63.20;;;;;;4997595;28;20188;-71
2022/05/18 13:20:26;;;;;;;2.88;2.10;;;22.10;63.10;;;;;;5013489;28;20195;-73
2022/05/18 13:23:12;;;;;;;3.05;2.35;;;22.10;63.10;;;;;;4997486;28;20271;-73
2022/05/18 13:25:46;;;;;;;1.98;1.77;;;22.20;63.20;;;;;;5013844;28;20192;-73
2022/05/18 13:28:14;;;;;;;2.42;2.20;;;22.10;63.10;;;;;;5014862;28;20242;-73
2022/05/18 13:30:51;;;;;;;3.15;2.20;;;22.10;63.10;;;;;;5013721;28;20243;-75
2022/05/18 13:33:18;;;;;;;2.20;2.00;;;22.20;63.20;;;;;;4999401;28;20198;-73
2022/05/18 13:35:49;;;;;;;2.65;2.00;;;22.20;63.20;;;;;;5031219;28;20277;-72
2022/05/18 13:38:21;;;;;;;2.17;1.98;;;22.20;63.30;;;;;;5033267;28;20195;-71
2022/05/18 13:40:54;;;;;;;2.40;2.20;;;22.20;62.40;;;;;;5016702;28;20282;-70